Burton, Texas
Current Conditions -  °F | °C
As of 3:55 AM on Sunday 21 Dec 2014 (Local Time) from K11R Reporting Station
Broken Clouds Broken Clouds  
Wind Chill: 51°   Ceiling: 1400
Heat Index: 51°   Visibility: 10mi
Dew Point: 49°   Wind: 0mph
Humidity: 90%   Direction: NA
Pressure: 30.14"   Gusts: NA
Location:  30.18°N, 96.6°W
Report Text: K11R 210955Z AUTO 00000KT 10SM BKN014 BKN019 11/09 A3014 RMK AO2 T01080093
Loading
Personal Weather Stations






























Interactive Weather Map New forecast layout! Learn more

10-Day Weather Forecast

Advertisements
Track Severe Weather on mobile